sensor_id;sensor_type;location;lat;lon;timestamp;P1;durP1;ratioP1;P2;durP2;ratioP2
10134;SDS011;5107;48.850;8.924;2023-05-07T00:02:20;4.13;;;3.67;;
10134;SDS011;5107;48.850;8.924;2023-05-07T00:04:45;5.33;;;4.30;;
10134;SDS011;5107;48.850;8.924;2023-05-07T00:07:11;6.30;;;4.60;;
10134;SDS011;5107;48.850;8.924;2023-05-07T00:09:36;8.60;;;5.50;;
10134;SDS011;5107;48.850;8.924;2023-05-07T00:12:02;5.27;;;4.57;;
10134;SDS011;5107;48.850;8.924;2023-05-07T00:14:27;6.30;;;4.60;;
10134;SDS011;5107;48.850;8.924;2023-05-07T00:16:52;5.03;;;4.53;;
10134;SDS011;5107;48.850;8.924;2023-05-07T00:19:18;4.83;;;4.37;;
10134;SDS011;5107;48.850;8.924;2023-05-07T00:21:43;5.17;;;4.67;;
10134;SDS011;5107;48.850;8.924;2023-05-07T00:24:08;4.47;;;3.97;;
10134;SDS011;5107;48.850;8.924;2023-05-07T00:26:34;5.37;;;4.50;;
10134;SDS011;5107;48.850;8.924;2023-05-07T00:28:59;4.90;;;4.40;;
10134;SDS011;5107;48.850;8.924;2023-05-07T00:31:24;4.87;;;4.37;;
10134;SDS011;5107;48.850;8.924;2023-05-07T00:33:50;5.00;;;4.50;;
10134;SDS011;5107;48.850;8.924;2023-05-07T00:36:15;4.87;;;4.37;;
10134;SDS011;5107;48.850;8.924;2023-05-07T00:38:40;5.40;;;4.30;;
10134;SDS011;5107;48.850;8.924;2023-05-07T00:41:06;5.60;;;4.13;;
10134;SDS011;5107;48.850;8.924;2023-05-07T00:43:31;5.13;;;4.63;;
10134;SDS011;5107;48.850;8.924;2023-05-07T00:45:57;5.67;;;4.27;;
10134;SDS011;5107;48.850;8.924;2023-05-07T00:48:22;6.70;;;4.40;;
10134;SDS011;5107;48.850;8.924;2023-05-07T00:50:49;6.17;;;5.00;;
10134;SDS011;5107;48.850;8.924;2023-05-07T00:53:14;4.73;;;4.33;;
10134;SDS011;5107;48.850;8.924;2023-05-07T00:55:40;6.20;;;4.77;;
10134;SDS011;5107;48.850;8.924;2023-05-07T00:58:05;7.40;;;4.53;;
10134;SDS011;5107;48.850;8.924;2023-05-07T01:00:31;5.13;;;4.20;;
10134;SDS011;5107;48.850;8.924;2023-05-07T01:02:57;5.37;;;4.47;;
10134;SDS011;5107;48.850;8.924;2023-05-07T01:05:23;4.60;;;4.20;;
10134;SDS011;5107;48.850;8.924;2023-05-07T01:07:50;4.57;;;4.17;;
10134;SDS011;5107;48.850;8.924;2023-05-07T01:10:19;4.63;;;4.20;;
10134;SDS011;5107;48.850;8.924;2023-05-07T01:12:45;4.53;;;3.93;;
10134;SDS011;5107;48.850;8.924;2023-05-07T01:15:13;4.50;;;4.10;;
10134;SDS011;5107;48.850;8.924;2023-05-07T01:17:39;6.57;;;4.73;;
10134;SDS011;5107;48.850;8.924;2023-05-07T01:20:06;5.10;;;4.60;;
10134;SDS011;5107;48.850;8.924;2023-05-07T01:22:33;6.20;;;4.50;;
10134;SDS011;5107;48.850;8.924;2023-05-07T01:24:59;5.20;;;4.60;;
10134;SDS011;5107;48.850;8.924;2023-05-07T01:27:26;5.20;;;4.70;;
10134;SDS011;5107;48.850;8.924;2023-05-07T01:29:52;4.97;;;4.57;;
10134;SDS011;5107;48.850;8.924;2023-05-07T01:32:18;5.43;;;4.87;;
10134;SDS011;5107;48.850;8.924;2023-05-07T01:34:48;5.43;;;4.87;;
10134;SDS011;5107;48.850;8.924;2023-05-07T01:37:15;5.60;;;5.10;;
10134;SDS011;5107;48.850;8.924;2023-05-07T01:39:40;5.77;;;5.17;;
10134;SDS011;5107;48.850;8.924;2023-05-07T01:42:07;9.13;;;5.77;;
10134;SDS011;5107;48.850;8.924;2023-05-07T01:44:32;7.40;;;5.60;;
10134;SDS011;5107;48.850;8.924;2023-05-07T01:46:58;6.37;;;5.43;;
10134;SDS011;5107;48.850;8.924;2023-05-07T01:49:24;5.77;;;5.27;;
10134;SDS011;5107;48.850;8.924;2023-05-07T01:51:50;5.90;;;5.33;;
10134;SDS011;5107;48.850;8.924;2023-05-07T01:54:15;5.43;;;4.90;;
10134;SDS011;5107;48.850;8.924;2023-05-07T01:56:41;6.57;;;5.90;;
10134;SDS011;5107;48.850;8.924;2023-05-07T01:59:06;6.30;;;5.33;;
10134;SDS011;5107;48.850;8.924;2023-05-07T02:01:32;6.07;;;5.50;;
10134;SDS011;5107;48.850;8.924;2023-05-07T02:03:57;6.90;;;6.20;;
10134;SDS011;5107;48.850;8.924;2023-05-07T02:06:22;6.50;;;5.87;;
10134;SDS011;5107;48.850;8.924;2023-05-07T02:08:47;6.17;;;5.57;;
10134;SDS011;5107;48.850;8.924;2023-05-07T02:11:13;6.63;;;5.90;;
10134;SDS011;5107;48.850;8.924;2023-05-07T02:13:38;6.27;;;5.67;;
10134;SDS011;5107;48.850;8.924;2023-05-07T02:16:04;6.50;;;5.67;;
10134;SDS011;5107;48.850;8.924;2023-05-07T02:18:29;8.07;;;6.00;;
10134;SDS011;5107;48.850;8.924;2023-05-07T02:20:55;6.53;;;5.83;;
10134;SDS011;5107;48.850;8.924;2023-05-07T02:23:20;7.40;;;5.80;;
10134;SDS011;5107;48.850;8.924;2023-05-07T02:25:45;8.83;;;5.97;;
10134;SDS011;5107;48.850;8.924;2023-05-07T02:28:11;6.53;;;5.90;;
10134;SDS011;5107;48.850;8.924;2023-05-07T02:30:37;7.00;;;6.03;;
10134;SDS011;5107;48.850;8.924;2023-05-07T02:33:03;7.70;;;5.60;;
10134;SDS011;5107;48.850;8.924;2023-05-07T02:35:28;6.43;;;5.83;;
10134;SDS011;5107;48.850;8.924;2023-05-07T02:37:53;6.60;;;5.90;;
10134;SDS011;5107;48.850;8.924;2023-05-07T02:40:19;6.13;;;5.40;;
10134;SDS011;5107;48.850;8.924;2023-05-07T02:42:44;6.30;;;5.70;;
10134;SDS011;5107;48.850;8.924;2023-05-07T02:45:10;5.97;;;5.37;;
10134;SDS011;5107;48.850;8.924;2023-05-07T02:47:35;6.47;;;5.77;;
10134;SDS011;5107;48.850;8.924;2023-05-07T02:50:01;6.57;;;5.97;;
10134;SDS011;5107;48.850;8.924;2023-05-07T02:52:26;5.90;;;5.40;;
10134;SDS011;5107;48.850;8.924;2023-05-07T02:54:52;6.23;;;5.53;;
10134;SDS011;5107;48.850;8.924;2023-05-07T02:57:17;6.10;;;5.50;;
10134;SDS011;5107;48.850;8.924;2023-05-07T02:59:42;6.20;;;5.60;;
10134;SDS011;5107;48.850;8.924;2023-05-07T03:02:08;6.57;;;5.80;;
10134;SDS011;5107;48.850;8.924;2023-05-07T03:04:34;6.37;;;5.70;;
10134;SDS011;5107;48.850;8.924;2023-05-07T03:06:59;6.50;;;5.53;;
10134;SDS011;5107;48.850;8.924;2023-05-07T03:09:25;5.80;;;5.30;;
10134;SDS011;5107;48.850;8.924;2023-05-07T03:11:50;8.37;;;5.73;;
10134;SDS011;5107;48.850;8.924;2023-05-07T03:14:16;5.40;;;4.90;;
10134;SDS011;5107;48.850;8.924;2023-05-07T03:16:41;6.67;;;5.23;;
10134;SDS011;5107;48.850;8.924;2023-05-07T03:19:06;6.03;;;5.10;;
10134;SDS011;5107;48.850;8.924;2023-05-07T03:21:32;7.10;;;5.40;;
10134;SDS011;5107;48.850;8.924;2023-05-07T03:23:58;5.93;;;5.30;;
10134;SDS011;5107;48.850;8.924;2023-05-07T03:26:24;5.37;;;4.83;;
10134;SDS011;5107;48.850;8.924;2023-05-07T03:28:50;4.90;;;4.40;;
10134;SDS011;5107;48.850;8.924;2023-05-07T03:31:15;5.47;;;4.97;;
10134;SDS011;5107;48.850;8.924;2023-05-07T03:33:51;5.30;;;4.80;;
10134;SDS011;5107;48.850;8.924;2023-05-07T03:36:20;5.97;;;4.60;;
10134;SDS011;5107;48.850;8.924;2023-05-07T03:38:45;4.77;;;4.30;;
10134;SDS011;5107;48.850;8.924;2023-05-07T03:41:11;6.10;;;4.37;;
10134;SDS011;5107;48.850;8.924;2023-05-07T03:43:37;6.27;;;4.37;;
10134;SDS011;5107;48.850;8.924;2023-05-07T03:46:02;5.87;;;4.87;;
10134;SDS011;5107;48.850;8.924;2023-05-07T03:48:27;7.10;;;4.23;;
10134;SDS011;5107;48.850;8.924;2023-05-07T03:50:52;5.23;;;4.53;;
10134;SDS011;5107;48.850;8.924;2023-05-07T03:53:18;6.33;;;4.53;;
10134;SDS011;5107;48.850;8.924;2023-05-07T03:55:43;5.07;;;4.47;;
10134;SDS011;5107;48.850;8.924;2023-05-07T03:58:08;6.40;;;4.67;;
10134;SDS011;5107;48.850;8.924;2023-05-07T04:00:34;5.10;;;4.70;;
10134;SDS011;5107;48.850;8.924;2023-05-07T04:03:03;4.87;;;4.47;;
10134;SDS011;5107;48.850;8.924;2023-05-07T04:05:29;6.83;;;4.60;;
10134;SDS011;5107;48.850;8.924;2023-05-07T04:07:55;5.10;;;4.23;;
10134;SDS011;5107;48.850;8.924;2023-05-07T04:10:20;4.83;;;4.30;;
10134;SDS011;5107;48.850;8.924;2023-05-07T04:12:45;5.30;;;4.30;;
10134;SDS011;5107;48.850;8.924;2023-05-07T04:15:11;4.90;;;4.50;;
10134;SDS011;5107;48.850;8.924;2023-05-07T04:17:36;6.37;;;4.43;;
10134;SDS011;5107;48.850;8.924;2023-05-07T04:20:02;4.67;;;4.07;;
10134;SDS011;5107;48.850;8.924;2023-05-07T04:22:27;4.43;;;4.03;;
10134;SDS011;5107;48.850;8.924;2023-05-07T04:24:53;5.13;;;4.33;;
10134;SDS011;5107;48.850;8.924;2023-05-07T04:27:18;6.07;;;3.90;;
10134;SDS011;5107;48.850;8.924;2023-05-07T04:29:43;4.00;;;3.60;;
10134;SDS011;5107;48.850;8.924;2023-05-07T04:32:12;5.30;;;3.97;;
10134;SDS011;5107;48.850;8.924;2023-05-07T04:34:37;5.37;;;3.80;;
10134;SDS011;5107;48.850;8.924;2023-05-07T04:37:02;5.33;;;4.17;;
10134;SDS011;5107;48.850;8.924;2023-05-07T04:39:28;4.00;;;3.60;;
10134;SDS011;5107;48.850;8.924;2023-05-07T04:41:53;4.03;;;3.63;;
10134;SDS011;5107;48.850;8.924;2023-05-07T04:44:19;3.93;;;3.20;;
10134;SDS011;5107;48.850;8.924;2023-05-07T04:46:45;3.43;;;3.13;;
10134;SDS011;5107;48.850;8.924;2023-05-07T04:49:10;3.67;;;3.03;;
10134;SDS011;5107;48.850;8.924;2023-05-07T04:51:36;3.93;;;3.53;;
10134;SDS011;5107;48.850;8.924;2023-05-07T04:54:01;3.63;;;3.33;;
10134;SDS011;5107;48.850;8.924;2023-05-07T04:56:27;3.20;;;2.97;;
10134;SDS011;5107;48.850;8.924;2023-05-07T04:58:54;3.53;;;3.23;;
10134;SDS011;5107;48.850;8.924;2023-05-07T05:01:20;3.60;;;3.30;;
10134;SDS011;5107;48.850;8.924;2023-05-07T05:03:45;3.50;;;3.20;;
10134;SDS011;5107;48.850;8.924;2023-05-07T05:06:10;3.23;;;3.00;;
10134;SDS011;5107;48.850;8.924;2023-05-07T05:08:36;4.53;;;3.40;;
10134;SDS011;5107;48.850;8.924;2023-05-07T05:11:02;3.97;;;3.63;;
10134;SDS011;5107;48.850;8.924;2023-05-07T05:13:27;5.17;;;3.10;;
10134;SDS011;5107;48.850;8.924;2023-05-07T05:15:53;3.70;;;3.40;;
10134;SDS011;5107;48.850;8.924;2023-05-07T05:18:18;3.60;;;3.30;;
10134;SDS011;5107;48.850;8.924;2023-05-07T05:20:43;3.80;;;3.40;;
10134;SDS011;5107;48.850;8.924;2023-05-07T05:23:09;5.50;;;3.60;;
10134;SDS011;5107;48.850;8.924;2023-05-07T05:25:34;4.10;;;3.67;;
10134;SDS011;5107;48.850;8.924;2023-05-07T05:27:59;4.73;;;3.60;;
10134;SDS011;5107;48.850;8.924;2023-05-07T05:30:25;4.03;;;2.90;;
10134;SDS011;5107;48.850;8.924;2023-05-07T05:32:50;3.20;;;2.90;;
10134;SDS011;5107;48.850;8.924;2023-05-07T05:35:15;3.37;;;3.07;;
10134;SDS011;5107;48.850;8.924;2023-05-07T05:37:41;3.00;;;2.80;;
10134;SDS011;5107;48.850;8.924;2023-05-07T05:40:06;2.97;;;2.77;;
10134;SDS011;5107;48.850;8.924;2023-05-07T05:42:32;3.50;;;3.20;;
10134;SDS011;5107;48.850;8.924;2023-05-07T05:44:57;4.00;;;2.83;;
10134;SDS011;5107;48.850;8.924;2023-05-07T05:47:22;3.70;;;3.40;;
10134;SDS011;5107;48.850;8.924;2023-05-07T05:49:48;3.97;;;3.47;;
10134;SDS011;5107;48.850;8.924;2023-05-07T05:52:13;3.63;;;3.27;;
10134;SDS011;5107;48.850;8.924;2023-05-07T05:54:39;5.80;;;3.50;;
10134;SDS011;5107;48.850;8.924;2023-05-07T05:57:04;4.93;;;3.20;;
10134;SDS011;5107;48.850;8.924;2023-05-07T05:59:30;3.57;;;2.90;;
10134;SDS011;5107;48.850;8.924;2023-05-07T06:01:56;3.23;;;2.93;;
10134;SDS011;5107;48.850;8.924;2023-05-07T06:04:21;3.80;;;2.78;;
10134;SDS011;5107;48.850;8.924;2023-05-07T06:06:47;3.08;;;2.78;;
10134;SDS011;5107;48.850;8.924;2023-05-07T06:09:12;3.00;;;2.80;;
10134;SDS011;5107;48.850;8.924;2023-05-07T06:11:37;3.80;;;3.17;;
10134;SDS011;5107;48.850;8.924;2023-05-07T06:14:03;3.20;;;2.75;;
10134;SDS011;5107;48.850;8.924;2023-05-07T06:16:28;4.43;;;3.67;;
10134;SDS011;5107;48.850;8.924;2023-05-07T06:18:53;3.58;;;3.10;;
10134;SDS011;5107;48.850;8.924;2023-05-07T06:21:19;4.38;;;3.25;;
10134;SDS011;5107;48.850;8.924;2023-05-07T06:23:44;3.10;;;2.90;;
10134;SDS011;5107;48.850;8.924;2023-05-07T06:26:09;3.30;;;3.00;;
10134;SDS011;5107;48.850;8.924;2023-05-07T06:28:35;3.58;;;3.28;;
10134;SDS011;5107;48.850;8.924;2023-05-07T06:31:12;3.97;;;3.00;;
10134;SDS011;5107;48.850;8.924;2023-05-07T06:33:38;3.40;;;2.92;;
10134;SDS011;5107;48.850;8.924;2023-05-07T06:36:04;3.85;;;2.70;;
10134;SDS011;5107;48.850;8.924;2023-05-07T06:38:30;2.65;;;2.30;;
10134;SDS011;5107;48.850;8.924;2023-05-07T06:40:55;2.70;;;2.42;;
10134;SDS011;5107;48.850;8.924;2023-05-07T06:43:22;2.83;;;2.45;;
10134;SDS011;5107;48.850;8.924;2023-05-07T06:45:47;2.80;;;2.60;;
10134;SDS011;5107;48.850;8.924;2023-05-07T06:48:12;3.10;;;2.80;;
10134;SDS011;5107;48.850;8.924;2023-05-07T06:50:38;3.40;;;2.97;;
10134;SDS011;5107;48.850;8.924;2023-05-07T06:53:03;2.78;;;2.55;;
10134;SDS011;5107;48.850;8.924;2023-05-07T06:55:28;2.83;;;2.63;;
10134;SDS011;5107;48.850;8.924;2023-05-07T06:57:54;3.70;;;2.65;;
10134;SDS011;5107;48.850;8.924;2023-05-07T07:00:19;3.03;;;2.75;;
10134;SDS011;5107;48.850;8.924;2023-05-07T07:02:45;2.80;;;2.60;;
10134;SDS011;5107;48.850;8.924;2023-05-07T07:05:10;2.75;;;2.55;;
10134;SDS011;5107;48.850;8.924;2023-05-07T07:07:35;3.80;;;2.70;;
10134;SDS011;5107;48.850;8.924;2023-05-07T07:10:01;4.35;;;2.95;;
10134;SDS011;5107;48.850;8.924;2023-05-07T07:12:27;4.50;;;3.00;;
10134;SDS011;5107;48.850;8.924;2023-05-07T07:14:53;3.35;;;2.63;;
10134;SDS011;5107;48.850;8.924;2023-05-07T07:17:19;3.10;;;2.80;;
10134;SDS011;5107;48.850;8.924;2023-05-07T07:19:44;3.15;;;2.90;;
10134;SDS011;5107;48.850;8.924;2023-05-07T07:22:10;3.20;;;3.00;;
10134;SDS011;5107;48.850;8.924;2023-05-07T07:24:36;3.13;;;2.92;;
10134;SDS011;5107;48.850;8.924;2023-05-07T07:27:01;3.35;;;3.05;;
10134;SDS011;5107;48.850;8.924;2023-05-07T07:29:26;4.25;;;3.38;;
10134;SDS011;5107;48.850;8.924;2023-05-07T07:31:52;7.32;;;3.65;;
10134;SDS011;5107;48.850;8.924;2023-05-07T07:34:17;3.60;;;3.30;;
10134;SDS011;5107;48.850;8.924;2023-05-07T07:36:42;3.55;;;3.25;;
10134;SDS011;5107;48.850;8.924;2023-05-07T07:39:08;4.25;;;3.42;;
10134;SDS011;5107;48.850;8.924;2023-05-07T07:41:33;3.50;;;3.20;;
10134;SDS011;5107;48.850;8.924;2023-05-07T07:43:58;3.60;;;3.30;;
10134;SDS011;5107;48.850;8.924;2023-05-07T07:46:24;4.03;;;3.63;;
10134;SDS011;5107;48.850;8.924;2023-05-07T07:48:49;3.63;;;3.33;;
10134;SDS011;5107;48.850;8.924;2023-05-07T07:51:14;3.70;;;3.33;;
10134;SDS011;5107;48.850;8.924;2023-05-07T07:53:40;3.17;;;2.97;;
10134;SDS011;5107;48.850;8.924;2023-05-07T07:56:06;3.88;;;3.30;;
10134;SDS011;5107;48.850;8.924;2023-05-07T07:58:31;4.82;;;3.53;;
10134;SDS011;5107;48.850;8.924;2023-05-07T08:00:56;3.57;;;3.27;;
10134;SDS011;5107;48.850;8.924;2023-05-07T08:03:22;3.45;;;3.13;;
10134;SDS011;5107;48.850;8.924;2023-05-07T08:05:47;3.60;;;3.25;;
10134;SDS011;5107;48.850;8.924;2023-05-07T08:08:15;3.75;;;3.45;;
10134;SDS011;5107;48.850;8.924;2023-05-07T08:10:40;3.45;;;3.15;;
10134;SDS011;5107;48.850;8.924;2023-05-07T08:13:06;4.07;;;3.22;;
10134;SDS011;5107;48.850;8.924;2023-05-07T08:15:31;3.40;;;3.10;;
10134;SDS011;5107;48.850;8.924;2023-05-07T08:17:57;3.67;;;3.00;;
10134;SDS011;5107;48.850;8.924;2023-05-07T08:20:24;3.50;;;3.20;;
10134;SDS011;5107;48.850;8.924;2023-05-07T08:22:51;3.30;;;3.00;;
10134;SDS011;5107;48.850;8.924;2023-05-07T08:25:16;3.90;;;3.20;;
10134;SDS011;5107;48.850;8.924;2023-05-07T08:27:41;4.18;;;3.15;;
10134;SDS011;5107;48.850;8.924;2023-05-07T08:30:07;3.45;;;3.15;;
10134;SDS011;5107;48.850;8.924;2023-05-07T08:32:33;3.22;;;3.00;;
10134;SDS011;5107;48.850;8.924;2023-05-07T08:34:58;3.15;;;2.75;;
10134;SDS011;5107;48.850;8.924;2023-05-07T08:37:23;3.40;;;3.10;;
10134;SDS011;5107;48.850;8.924;2023-05-07T08:39:49;3.53;;;3.22;;
10134;SDS011;5107;48.850;8.924;2023-05-07T08:42:15;4.10;;;3.60;;
10134;SDS011;5107;48.850;8.924;2023-05-07T08:44:41;4.03;;;3.63;;
10134;SDS011;5107;48.850;8.924;2023-05-07T08:47:11;4.47;;;3.40;;
10134;SDS011;5107;48.850;8.924;2023-05-07T08:49:37;4.20;;;3.83;;
10134;SDS011;5107;48.850;8.924;2023-05-07T08:52:02;3.30;;;3.10;;
10134;SDS011;5107;48.850;8.924;2023-05-07T08:54:28;3.80;;;3.03;;
10134;SDS011;5107;48.850;8.924;2023-05-07T08:56:54;3.47;;;3.25;;
10134;SDS011;5107;48.850;8.924;2023-05-07T08:59:19;5.45;;;3.63;;
10134;SDS011;5107;48.850;8.924;2023-05-07T09:01:45;4.07;;;3.50;;
10134;SDS011;5107;48.850;8.924;2023-05-07T09:04:10;3.42;;;3.05;;
10134;SDS011;5107;48.850;8.924;2023-05-07T09:06:37;3.80;;;3.50;;
10134;SDS011;5107;48.850;8.924;2023-05-07T09:09:06;6.07;;;3.72;;
10134;SDS011;5107;48.850;8.924;2023-05-07T09:11:32;3.80;;;3.50;;
10134;SDS011;5107;48.850;8.924;2023-05-07T09:13:57;3.78;;;3.47;;
10134;SDS011;5107;48.850;8.924;2023-05-07T09:16:26;3.70;;;3.40;;
10134;SDS011;5107;48.850;8.924;2023-05-07T09:18:52;3.50;;;3.20;;
10134;SDS011;5107;48.850;8.924;2023-05-07T09:21:19;5.88;;;3.58;;
10134;SDS011;5107;48.850;8.924;2023-05-07T09:23:45;3.90;;;3.40;;
10134;SDS011;5107;48.850;8.924;2023-05-07T09:26:12;3.65;;;3.30;;
10134;SDS011;5107;48.850;8.924;2023-05-07T09:28:39;3.60;;;3.30;;
10134;SDS011;5107;48.850;8.924;2023-05-07T09:31:06;7.88;;;3.17;;
10134;SDS011;5107;48.850;8.924;2023-05-07T09:33:31;4.97;;;3.28;;
10134;SDS011;5107;48.850;8.924;2023-05-07T09:35:57;3.60;;;2.72;;
10134;SDS011;5107;48.850;8.924;2023-05-07T09:38:22;3.83;;;3.45;;
10134;SDS011;5107;48.850;8.924;2023-05-07T09:40:48;4.68;;;3.22;;
10134;SDS011;5107;48.850;8.924;2023-05-07T09:43:33;4.30;;;3.47;;
10134;SDS011;5107;48.850;8.924;2023-05-07T09:46:07;3.45;;;3.13;;
10134;SDS011;5107;48.850;8.924;2023-05-07T09:48:37;4.30;;;3.10;;
10134;SDS011;5107;48.850;8.924;2023-05-07T09:51:06;5.93;;;3.20;;
10134;SDS011;5107;48.850;8.924;2023-05-07T09:53:40;3.22;;;2.88;;
10134;SDS011;5107;48.850;8.924;2023-05-07T09:56:07;3.00;;;2.80;;
10134;SDS011;5107;48.850;8.924;2023-05-07T09:58:33;3.33;;;3.03;;
10134;SDS011;5107;48.850;8.924;2023-05-07T10:01:02;4.97;;;3.22;;
10134;SDS011;5107;48.850;8.924;2023-05-07T10:03:28;3.72;;;3.13;;
10134;SDS011;5107;48.850;8.924;2023-05-07T10:05:57;3.35;;;3.15;;
10134;SDS011;5107;48.850;8.924;2023-05-07T10:08:23;5.47;;;3.60;;
10134;SDS011;5107;48.850;8.924;2023-05-07T10:10:49;4.97;;;3.58;;
10134;SDS011;5107;48.850;8.924;2023-05-07T10:13:14;4.13;;;3.72;;
10134;SDS011;5107;48.850;8.924;2023-05-07T10:15:41;3.90;;;3.50;;
10134;SDS011;5107;48.850;8.924;2023-05-07T10:18:06;3.60;;;3.30;;
10134;SDS011;5107;48.850;8.924;2023-05-07T10:20:33;4.22;;;3.83;;
10134;SDS011;5107;48.850;8.924;2023-05-07T10:23:01;3.95;;;3.40;;
10134;SDS011;5107;48.850;8.924;2023-05-07T10:25:30;4.38;;;3.28;;
10134;SDS011;5107;48.850;8.924;2023-05-07T10:27:57;3.65;;;3.30;;
10134;SDS011;5107;48.850;8.924;2023-05-07T10:33:10;3.83;;;3.53;;
10134;SDS011;5107;48.850;8.924;2023-05-07T10:35:39;3.97;;;3.67;;
10134;SDS011;5107;48.850;8.924;2023-05-07T10:38:06;3.70;;;3.35;;
10134;SDS011;5107;48.850;8.924;2023-05-07T10:40:32;4.35;;;3.60;;
10134;SDS011;5107;48.850;8.924;2023-05-07T10:45:24;5.07;;;3.75;;
10134;SDS011;5107;48.850;8.924;2023-05-07T10:50:34;4.10;;;3.70;;
10134;SDS011;5107;48.850;8.924;2023-05-07T10:55:44;4.68;;;4.28;;
10134;SDS011;5107;48.850;8.924;2023-05-07T10:58:24;4.63;;;4.22;;
10134;SDS011;5107;48.850;8.924;2023-05-07T11:00:55;5.97;;;4.20;;
10134;SDS011;5107;48.850;8.924;2023-05-07T11:03:27;4.25;;;3.80;;
10134;SDS011;5107;48.850;8.924;2023-05-07T11:06:15;4.03;;;3.72;;
10134;SDS011;5107;48.850;8.924;2023-05-07T11:11:20;4.97;;;3.83;;
10134;SDS011;5107;48.850;8.924;2023-05-07T11:15:01;4.70;;;3.85;;
10134;SDS011;5107;48.850;8.924;2023-05-07T11:17:10;4.70;;;4.30;;
10134;SDS011;5107;48.850;8.924;2023-05-07T11:19:52;4.75;;;3.75;;
10134;SDS011;5107;48.850;8.924;2023-05-07T11:25:00;4.43;;;4.03;;
10134;SDS011;5107;48.850;8.924;2023-05-07T11:27:27;3.90;;;3.60;;
10134;SDS011;5107;48.850;8.924;2023-05-07T11:29:52;5.60;;;3.40;;
10134;SDS011;5107;48.850;8.924;2023-05-07T11:32:28;4.07;;;3.53;;
10134;SDS011;5107;48.850;8.924;2023-05-07T11:34:55;3.80;;;3.50;;
10134;SDS011;5107;48.850;8.924;2023-05-07T11:37:22;3.63;;;3.33;;
10134;SDS011;5107;48.850;8.924;2023-05-07T11:39:49;3.55;;;3.25;;
10134;SDS011;5107;48.850;8.924;2023-05-07T11:42:52;6.15;;;4.20;;
10134;SDS011;5107;48.850;8.924;2023-05-07T11:45:10;3.90;;;3.60;;
10134;SDS011;5107;48.850;8.924;2023-05-07T11:47:36;3.25;;;3.05;;
10134;SDS011;5107;48.850;8.924;2023-05-07T11:50:02;3.95;;;3.55;;
10134;SDS011;5107;48.850;8.924;2023-05-07T11:52:29;4.28;;;3.88;;
10134;SDS011;5107;48.850;8.924;2023-05-07T11:54:56;3.63;;;3.25;;
10134;SDS011;5107;48.850;8.924;2023-05-07T11:57:23;3.83;;;3.50;;
10134;SDS011;5107;48.850;8.924;2023-05-07T11:59:56;4.80;;;3.30;;
10134;SDS011;5107;48.850;8.924;2023-05-07T12:02:22;3.60;;;3.30;;
10134;SDS011;5107;48.850;8.924;2023-05-07T12:04:49;4.07;;;3.72;;
10134;SDS011;5107;48.850;8.924;2023-05-07T12:07:15;3.80;;;3.50;;
10134;SDS011;5107;48.850;8.924;2023-05-07T12:09:41;6.90;;;4.32;;
10134;SDS011;5107;48.850;8.924;2023-05-07T12:12:07;5.18;;;3.70;;
10134;SDS011;5107;48.850;8.924;2023-05-07T12:14:37;3.65;;;3.28;;
10134;SDS011;5107;48.850;8.924;2023-05-07T12:17:04;3.80;;;3.42;;
10134;SDS011;5107;48.850;8.924;2023-05-07T12:19:30;4.10;;;3.72;;
10134;SDS011;5107;48.850;8.924;2023-05-07T12:21:56;3.92;;;3.40;;
10134;SDS011;5107;48.850;8.924;2023-05-07T12:24:22;3.80;;;3.50;;
10134;SDS011;5107;48.850;8.924;2023-05-07T12:26:48;3.42;;;3.10;;
10134;SDS011;5107;48.850;8.924;2023-05-07T12:29:13;3.47;;;3.15;;
10134;SDS011;5107;48.850;8.924;2023-05-07T12:31:42;3.30;;;3.00;;
10134;SDS011;5107;48.850;8.924;2023-05-07T12:34:07;4.30;;;2.95;;
10134;SDS011;5107;48.850;8.924;2023-05-07T12:36:36;4.50;;;3.05;;
10134;SDS011;5107;48.850;8.924;2023-05-07T12:39:06;2.90;;;2.70;;
10134;SDS011;5107;48.850;8.924;2023-05-07T12:41:35;3.83;;;2.80;;
10134;SDS011;5107;48.850;8.924;2023-05-07T12:44:16;2.93;;;2.43;;
10134;SDS011;5107;48.850;8.924;2023-05-07T12:46:42;2.37;;;2.17;;
10134;SDS011;5107;48.850;8.924;2023-05-07T12:49:07;2.93;;;2.00;;
10134;SDS011;5107;48.850;8.924;2023-05-07T12:51:34;2.27;;;2.07;;
10134;SDS011;5107;48.850;8.924;2023-05-07T12:54:00;1.95;;;1.67;;
10134;SDS011;5107;48.850;8.924;2023-05-07T12:56:25;2.40;;;1.70;;
10134;SDS011;5107;48.850;8.924;2023-05-07T12:58:51;2.03;;;1.83;;
10134;SDS011;5107;48.850;8.924;2023-05-07T13:01:16;1.70;;;1.60;;
10134;SDS011;5107;48.850;8.924;2023-05-07T13:03:47;2.22;;;2.03;;
10134;SDS011;5107;48.850;8.924;2023-05-07T13:06:13;2.90;;;2.45;;
10134;SDS011;5107;48.850;8.924;2023-05-07T13:08:39;2.53;;;2.33;;
10134;SDS011;5107;48.850;8.924;2023-05-07T13:11:08;3.78;;;2.70;;
10134;SDS011;5107;48.850;8.924;2023-05-07T13:13:35;2.10;;;2.00;;
10134;SDS011;5107;48.850;8.924;2023-05-07T13:16:02;2.00;;;1.80;;
10134;SDS011;5107;48.850;8.924;2023-05-07T13:18:32;2.17;;;1.87;;
10134;SDS011;5107;48.850;8.924;2023-05-07T13:20:59;1.90;;;1.80;;
10134;SDS011;5107;48.850;8.924;2023-05-07T13:23:25;2.37;;;2.10;;
10134;SDS011;5107;48.850;8.924;2023-05-07T13:25:50;1.83;;;1.73;;
10134;SDS011;5107;48.850;8.924;2023-05-07T13:28:19;3.17;;;1.50;;
10134;SDS011;5107;48.850;8.924;2023-05-07T13:30:45;3.27;;;2.30;;
10134;SDS011;5107;48.850;8.924;2023-05-07T13:33:11;2.53;;;1.83;;
10134;SDS011;5107;48.850;8.924;2023-05-07T13:35:36;3.47;;;2.00;;
10134;SDS011;5107;48.850;8.924;2023-05-07T13:38:01;2.20;;;2.00;;
10134;SDS011;5107;48.850;8.924;2023-05-07T13:40:27;2.93;;;2.63;;
10134;SDS011;5107;48.850;8.924;2023-05-07T13:42:53;2.63;;;2.40;;
10134;SDS011;5107;48.850;8.924;2023-05-07T13:45:18;2.97;;;2.53;;
10134;SDS011;5107;48.850;8.924;2023-05-07T13:47:44;2.93;;;2.40;;
10134;SDS011;5107;48.850;8.924;2023-05-07T13:50:11;3.33;;;2.27;;
10134;SDS011;5107;48.850;8.924;2023-05-07T13:52:41;2.80;;;2.07;;
10134;SDS011;5107;48.850;8.924;2023-05-07T13:55:08;2.27;;;1.90;;
10134;SDS011;5107;48.850;8.924;2023-05-07T13:57:36;2.20;;;2.00;;
10134;SDS011;5107;48.850;8.924;2023-05-07T14:00:04;3.60;;;2.10;;
10134;SDS011;5107;48.850;8.924;2023-05-07T14:02:31;2.73;;;2.00;;
10134;SDS011;5107;48.850;8.924;2023-05-07T14:04:56;5.57;;;2.23;;
10134;SDS011;5107;48.850;8.924;2023-05-07T14:07:22;4.03;;;2.30;;
10134;SDS011;5107;48.850;8.924;2023-05-07T14:09:47;3.10;;;2.00;;
10134;SDS011;5107;48.850;8.924;2023-05-07T14:12:13;3.70;;;2.30;;
10134;SDS011;5107;48.850;8.924;2023-05-07T14:14:38;2.00;;;1.80;;
10134;SDS011;5107;48.850;8.924;2023-05-07T14:17:03;2.37;;;2.00;;
10134;SDS011;5107;48.850;8.924;2023-05-07T14:19:29;3.13;;;2.47;;
10134;SDS011;5107;48.850;8.924;2023-05-07T14:21:54;2.27;;;2.07;;
10134;SDS011;5107;48.850;8.924;2023-05-07T14:24:19;3.77;;;2.40;;
10134;SDS011;5107;48.850;8.924;2023-05-07T14:26:45;2.40;;;2.20;;
10134;SDS011;5107;48.850;8.924;2023-05-07T14:29:10;2.63;;;2.30;;
10134;SDS011;5107;48.850;8.924;2023-05-07T14:31:36;4.47;;;2.60;;
10134;SDS011;5107;48.850;8.924;2023-05-07T14:34:01;5.93;;;2.70;;
10134;SDS011;5107;48.850;8.924;2023-05-07T14:36:27;3.57;;;2.37;;
10134;SDS011;5107;48.850;8.924;2023-05-07T14:38:52;3.33;;;2.60;;
10134;SDS011;5107;48.850;8.924;2023-05-07T14:41:24;3.30;;;2.70;;
10134;SDS011;5107;48.850;8.924;2023-05-07T14:43:49;3.20;;;2.60;;
10134;SDS011;5107;48.850;8.924;2023-05-07T14:46:17;3.93;;;3.20;;
10134;SDS011;5107;48.850;8.924;2023-05-07T14:48:44;3.77;;;3.10;;
10134;SDS011;5107;48.850;8.924;2023-05-07T14:51:10;4.07;;;3.23;;
10134;SDS011;5107;48.850;8.924;2023-05-07T14:53:36;3.37;;;3.07;;
10134;SDS011;5107;48.850;8.924;2023-05-07T14:56:01;5.90;;;3.93;;
10134;SDS011;5107;48.850;8.924;2023-05-07T14:58:27;15.10;;;6.83;;
10134;SDS011;5107;48.850;8.924;2023-05-07T15:00:52;4.30;;;3.40;;
10134;SDS011;5107;48.850;8.924;2023-05-07T15:03:17;4.03;;;3.20;;
10134;SDS011;5107;48.850;8.924;2023-05-07T15:05:43;4.93;;;3.00;;
10134;SDS011;5107;48.850;8.924;2023-05-07T15:08:08;3.17;;;2.93;;
10134;SDS011;5107;48.850;8.924;2023-05-07T15:10:35;3.77;;;3.00;;
10134;SDS011;5107;48.850;8.924;2023-05-07T15:13:05;3.83;;;2.80;;